createdAt,value
2018-01-19T00:02:13.618Z,93.86
2018-01-19T00:04:41.976Z,93.52
2018-01-19T00:07:10.265Z,92.42
2018-01-19T00:09:38.616Z,91.57
2018-01-19T00:12:06.998Z,90.85
2018-01-19T00:14:36.096Z,89.63
2018-01-19T00:17:04.344Z,88.81
2018-01-19T00:19:32.607Z,88.78
2018-01-19T00:22:00.851Z,88.51
2018-01-19T00:24:29.115Z,88.16
2018-01-19T00:26:57.392Z,88.80
2018-01-19T00:29:25.696Z,88.96
2018-01-19T00:31:53.934Z,88.49
2018-01-19T00:34:22.955Z,88.44
2018-01-19T00:36:51.263Z,88.40
2018-01-19T00:39:19.529Z,88.10
2018-01-19T00:41:48.535Z,87.98
2018-01-19T00:44:16.806Z,87.89
2018-01-19T00:46:45.824Z,86.83
2018-01-19T00:49:14.855Z,86.77
2018-01-19T00:51:43.115Z,86.45
2018-01-19T00:54:11.382Z,86.56
2018-01-19T00:56:39.727Z,86.59
2018-01-19T00:59:08.042Z,85.92
2018-01-19T01:01:36.365Z,86.10
2018-01-19T01:04:05.376Z,85.79
2018-01-19T01:06:34.403Z,85.84
2018-01-19T01:09:02.644Z,87.31
2018-01-19T01:11:30.911Z,88.27
2018-01-19T01:13:59.158Z,88.76
2018-01-19T01:16:28.190Z,89.69
2018-01-19T01:18:56.476Z,89.41
2018-01-19T01:21:24.740Z,88.43
2018-01-19T01:23:53.747Z,88.10
2018-01-19T01:26:22.780Z,87.75
2018-01-19T01:28:51.018Z,87.93
2018-01-19T01:31:19.292Z,87.40
2018-01-19T01:33:47.530Z,88.35
2018-01-19T01:36:15.788Z,88.53
2018-01-19T01:38:44.041Z,88.14
2018-01-19T01:41:12.307Z,86.96
2018-01-19T01:43:40.568Z,87.87
2018-01-19T01:46:09.647Z,88.02
2018-01-19T01:48:38.743Z,88.01
2018-01-19T01:51:07.071Z,87.33
2018-01-19T01:53:36.888Z,87.51
2018-01-19T01:56:05.149Z,87.09
2018-01-19T01:58:34.159Z,87.48
2018-01-19T02:01:02.435Z,89.57
2018-01-19T02:03:30.671Z,89.82
2018-01-19T02:05:59.696Z,88.89
2018-01-19T02:08:27.947Z,90.21
2018-01-19T02:10:56.236Z,90.19
2018-01-19T02:13:24.483Z,90.54
2018-01-19T02:15:52.755Z,90.61
2018-01-19T02:18:20.995Z,91.54
2018-01-19T02:20:49.264Z,91.27
2018-01-19T02:23:17.507Z,91.23
2018-01-19T02:25:46.519Z,91.99
2018-01-19T02:28:15.552Z,92.11
2018-01-19T02:30:43.812Z,92.09
2018-01-19T02:33:12.108Z,91.83
2018-01-19T02:35:41.163Z,92.28
2018-01-19T02:38:09.515Z,91.42
2018-01-19T02:40:37.863Z,92.06
2018-01-19T02:43:06.182Z,92.06
2018-01-19T02:45:35.522Z,92.32
2018-01-19T02:48:03.788Z,92.32
2018-01-19T02:50:32.047Z,92.65
2018-01-19T02:53:00.298Z,92.36
2018-01-19T02:55:28.546Z,92.79
2018-01-19T02:57:57.588Z,92.95
2018-01-19T03:00:25.879Z,92.96
2018-01-19T03:02:54.142Z,92.71
2018-01-19T03:05:22.389Z,93.49
2018-01-19T03:07:50.647Z,93.38
2018-01-19T03:10:18.895Z,93.25
2018-01-19T03:12:47.922Z,92.91
2018-01-19T03:15:16.159Z,93.48
2018-01-19T03:17:44.419Z,93.31
2018-01-19T03:20:12.704Z,91.73
2018-01-19T03:22:40.967Z,92.22
2018-01-19T03:25:10.023Z,91.46
2018-01-19T03:27:38.355Z,90.80
2018-01-19T03:30:08.400Z,90.32
2018-01-19T03:32:36.748Z,90.35
2018-01-19T03:35:05.034Z,89.49
2018-01-19T03:37:33.290Z,90.10
2018-01-19T03:40:01.540Z,90.04
2018-01-19T03:42:30.558Z,89.61
2018-01-19T03:44:58.807Z,88.96
2018-01-19T03:47:27.112Z,89.97
2018-01-19T03:49:55.382Z,90.53
2018-01-19T03:52:23.633Z,89.81
2018-01-19T03:54:51.898Z,89.45
2018-01-19T03:57:20.899Z,89.33
2018-01-19T03:59:49.918Z,89.62
2018-01-19T04:02:18.160Z,90.00
2018-01-19T04:04:46.422Z,90.07
2018-01-19T04:07:14.664Z,89.41
2018-01-19T04:09:43.700Z,90.27
2018-01-19T04:12:12.003Z,90.57
2018-01-19T04:14:40.304Z,90.22
2018-01-19T04:17:08.631Z,89.96
2018-01-19T04:19:37.782Z,90.19
2018-01-19T04:22:06.074Z,90.28
2018-01-19T04:24:34.329Z,90.59
2018-01-19T04:27:03.340Z,90.96
2018-01-19T04:29:32.366Z,91.37
2018-01-19T04:32:00.610Z,91.43
2018-01-19T04:34:28.866Z,91.07
2018-01-19T04:36:57.115Z,91.08
2018-01-19T04:39:25.415Z,90.40
2018-01-19T04:41:53.662Z,91.13
2018-01-19T04:44:21.923Z,90.92
2018-01-19T04:46:50.159Z,90.95
2018-01-19T04:49:19.183Z,90.26
2018-01-19T04:51:47.423Z,90.24
2018-01-19T04:54:15.691Z,89.32
2018-01-19T04:56:43.934Z,89.24
2018-01-19T04:59:13.704Z,89.10
2018-01-19T05:01:41.973Z,88.92
2018-01-19T05:04:10.259Z,88.31
2018-01-19T05:06:38.534Z,88.17
2018-01-19T05:09:06.847Z,88.25
2018-01-19T05:11:35.095Z,87.20
2018-01-19T05:14:04.135Z,86.60
2018-01-19T05:16:32.398Z,86.58
2018-01-19T05:19:01.411Z,87.52
2018-01-19T05:21:30.448Z,86.64
2018-01-19T05:23:59.469Z,86.46
2018-01-19T05:26:27.768Z,86.42
2018-01-19T05:28:56.027Z,86.88
2018-01-19T05:31:24.294Z,84.66
2018-01-19T05:33:53.294Z,85.25
2018-01-19T05:36:22.419Z,85.86
2018-01-19T05:38:50.736Z,86.39
2018-01-19T05:41:19.024Z,86.50
2018-01-19T05:43:47.267Z,86.16
2018-01-19T05:46:16.426Z,86.13
2018-01-19T05:48:45.337Z,86.65
2018-01-19T05:51:13.775Z,87.62
2018-01-19T05:53:43.058Z,86.57
2018-01-19T05:56:11.631Z,86.72
2018-01-19T05:58:40.302Z,85.84
2018-01-19T06:01:09.415Z,86.33
2018-01-19T06:03:37.801Z,86.60
2018-01-19T06:06:07.044Z,86.94
2018-01-19T06:08:35.381Z,86.35
2018-01-19T06:11:03.640Z,86.41
2018-01-19T06:13:31.891Z,84.67
2018-01-19T06:16:00.171Z,81.93
2018-01-19T06:18:28.415Z,81.17
2018-01-19T06:20:56.758Z,79.98
2018-01-19T06:23:25.005Z,78.87
2018-01-19T06:25:53.640Z,79.81
2018-01-19T06:28:22.058Z,79.64
2018-01-19T06:30:50.315Z,79.53
2018-01-19T06:33:18.567Z,79.73
2018-01-19T06:35:46.820Z,80.12
2018-01-19T06:38:15.061Z,79.83
2018-01-19T06:40:44.087Z,80.72
2018-01-19T06:43:12.398Z,80.00
2018-01-19T06:45:40.667Z,80.30
2018-01-19T06:48:08.960Z,80.61
2018-01-19T06:50:37.261Z,80.46
2018-01-19T06:53:05.579Z,81.00
2018-01-19T06:55:34.629Z,81.11
2018-01-19T06:58:03.647Z,81.50
2018-01-19T07:00:31.892Z,81.85
2018-01-19T07:03:00.162Z,81.83
2018-01-19T07:05:28.425Z,81.70
2018-01-19T07:07:56.723Z,81.37
2018-01-19T07:10:25.057Z,80.90
2018-01-19T07:12:53.328Z,79.58
2018-01-19T07:15:22.359Z,78.20
2018-01-19T07:17:50.625Z,78.83
2018-01-19T07:20:18.879Z,78.70
2018-01-19T07:22:47.143Z,78.44
2018-01-19T07:25:16.165Z,78.27
2018-01-19T07:27:44.435Z,78.00
2018-01-19T07:30:13.448Z,77.53
2018-01-19T07:32:42.523Z,77.65
2018-01-19T07:35:10.829Z,76.50
2018-01-19T07:37:39.188Z,76.74
2018-01-19T07:40:07.489Z,76.29
2018-01-19T07:42:35.782Z,75.75
2018-01-19T07:45:04.031Z,74.76
2018-01-19T07:47:32.298Z,74.51
2018-01-19T07:50:01.312Z,72.94
2018-01-19T07:52:29.563Z,73.60
2018-01-19T07:54:57.819Z,75.18
2018-01-19T07:57:26.072Z,75.30
2018-01-19T07:59:54.308Z,74.25
2018-01-19T08:02:22.574Z,73.13
2018-01-19T08:04:50.831Z,73.96
2018-01-19T08:07:19.863Z,73.56
2018-01-19T08:09:48.133Z,73.54
2018-01-19T08:12:17.159Z,74.17
2018-01-19T08:14:45.455Z,73.79
2018-01-19T08:17:13.760Z,74.95
2018-01-19T08:19:42.258Z,76.04
2018-01-19T08:22:11.459Z,76.17
2018-01-19T08:24:40.694Z,74.93
2018-01-19T08:27:09.074Z,75.13
2018-01-19T08:29:37.533Z,75.81
2018-01-19T08:32:05.818Z,75.82
2018-01-19T08:34:34.083Z,74.23
2018-01-19T08:37:03.213Z,74.44
2018-01-19T08:39:31.545Z,72.17
2018-01-19T08:42:01.603Z,72.87
2018-01-19T08:44:29.986Z,71.63
2018-01-19T08:46:58.629Z,71.67
2018-01-19T08:49:27.058Z,70.34
2018-01-19T08:51:55.412Z,69.77
2018-01-19T08:54:24.104Z,69.03
2018-01-19T08:56:52.614Z,68.43
2018-01-19T08:59:21.011Z,68.89
2018-01-19T09:01:49.266Z,69.02
2018-01-19T09:04:18.333Z,67.88
2018-01-19T09:06:46.775Z,67.92
2018-01-19T09:09:15.879Z,68.35
2018-01-19T09:11:44.892Z,67.52
2018-01-19T09:14:13.225Z,66.31
2018-01-19T09:16:41.698Z,66.65
2018-01-19T09:19:10.100Z,66.80
2018-01-19T09:21:38.605Z,67.05
2018-01-19T09:24:07.037Z,65.09
2018-01-19T09:26:35.410Z,64.86
2018-01-19T09:29:03.942Z,65.16
2018-01-19T09:31:32.971Z,66.62
2018-01-19T09:34:01.270Z,65.63
2018-01-19T09:36:29.524Z,64.35
2018-01-19T09:38:58.802Z,65.44
2018-01-19T09:41:27.071Z,63.10
2018-01-19T09:43:55.363Z,63.26
2018-01-19T09:46:23.614Z,63.22
2018-01-19T09:48:51.875Z,63.78
2018-01-19T09:51:20.903Z,63.54
2018-01-19T09:53:49.148Z,62.46
2018-01-19T09:56:17.438Z,62.96
2018-01-19T09:58:45.710Z,64.02
2018-01-19T10:01:13.959Z,63.39
2018-01-19T10:03:42.235Z,63.31
2018-01-19T10:06:11.285Z,63.59
2018-01-19T10:08:39.645Z,61.59
2018-01-19T10:11:07.974Z,63.04
2018-01-19T10:13:36.285Z,61.60
2018-01-19T10:16:05.287Z,62.13
2018-01-19T10:18:33.536Z,61.24
2018-01-19T10:21:01.791Z,61.23
2018-01-19T10:23:30.040Z,60.89
2018-01-19T10:25:58.303Z,61.34
2018-01-19T10:28:26.649Z,60.85
2018-01-19T10:30:54.897Z,60.78
2018-01-19T10:33:23.163Z,61.70
2018-01-19T10:35:51.418Z,60.52
2018-01-19T10:38:20.458Z,61.48
2018-01-19T10:40:48.739Z,61.48
2018-01-19T10:43:17.753Z,61.66
2018-01-19T10:45:46.021Z,61.89
2018-01-19T10:48:15.030Z,60.97
2018-01-19T10:50:44.048Z,62.04
2018-01-19T10:53:12.332Z,61.82
2018-01-19T10:55:40.625Z,60.79
2018-01-19T10:58:08.927Z,59.50
2018-01-19T11:00:37.383Z,58.43
2018-01-19T11:03:07.018Z,58.01
2018-01-19T11:05:35.287Z,56.43
2018-01-19T11:08:03.531Z,56.19
2018-01-19T11:10:31.786Z,57.19
2018-01-19T11:13:00.039Z,56.95
2018-01-19T11:15:28.283Z,56.17
2018-01-19T11:17:56.586Z,56.85
2018-01-19T11:20:24.871Z,56.36
2018-01-19T11:22:53.147Z,56.52
2018-01-19T11:25:21.437Z,55.51
2018-01-19T11:27:49.703Z,56.28
2018-01-19T11:30:18.748Z,56.06
2018-01-19T11:32:47.003Z,58.01
2018-01-19T11:35:16.018Z,58.51
2018-01-19T11:37:44.301Z,58.39
2018-01-19T11:40:12.595Z,56.12
2018-01-19T11:42:41.640Z,55.15
2018-01-19T11:45:09.913Z,55.63
2018-01-19T11:47:39.317Z,57.84
2018-01-19T11:50:07.898Z,55.18
2018-01-19T11:52:36.303Z,56.25
2018-01-19T11:55:04.706Z,57.04
2018-01-19T11:57:32.959Z,57.59
2018-01-19T12:00:01.984Z,56.35
2018-01-19T12:02:31.155Z,56.88
2018-01-19T12:04:59.577Z,56.65
2018-01-19T12:07:28.624Z,56.82
2018-01-19T12:09:57.079Z,57.56
2018-01-19T12:12:26.617Z,57.52
2018-01-19T12:14:54.871Z,57.75
2018-01-19T12:17:24.452Z,57.92
2018-01-19T12:19:52.744Z,58.88
2018-01-19T12:22:21.872Z,57.97
2018-01-19T12:24:50.177Z,57.77
2018-01-19T12:27:18.429Z,57.62
2018-01-19T12:29:47.648Z,56.97
2018-01-19T12:32:16.025Z,56.22
2018-01-19T12:34:44.309Z,55.30
2018-01-19T12:37:12.711Z,55.99
2018-01-19T12:39:41.090Z,56.96
2018-01-19T12:42:09.989Z,57.82
2018-01-19T12:44:38.280Z,55.88
2018-01-19T12:47:06.632Z,56.58
2018-01-19T12:49:35.644Z,56.67
2018-01-19T12:52:04.660Z,57.40
2018-01-19T12:54:33.688Z,56.68
2018-01-19T12:57:01.951Z,57.01
2018-01-19T12:59:30.977Z,56.83
2018-01-19T13:01:59.219Z,57.00
2018-01-19T13:04:27.511Z,55.38
2018-01-19T13:06:55.815Z,56.70
2018-01-19T13:09:24.859Z,56.43
2018-01-19T13:11:53.148Z,55.98
2018-01-19T13:14:21.426Z,57.20
2018-01-19T13:16:49.684Z,58.09
2018-01-19T13:19:17.938Z,58.29
2018-01-19T13:21:46.180Z,57.24
2018-01-19T13:24:15.199Z,58.24
2018-01-19T13:26:44.360Z,58.34
2018-01-19T13:29:12.623Z,57.28
2018-01-19T13:31:40.935Z,56.48
2018-01-19T13:34:09.237Z,57.57
2018-01-19T13:36:37.737Z,56.92
2018-01-19T13:39:06.161Z,57.05
2018-01-19T13:41:34.600Z,57.25
2018-01-19T13:44:03.134Z,57.31
2018-01-19T13:46:32.410Z,59.08
2018-01-19T13:49:01.007Z,58.61
2018-01-19T13:51:29.521Z,59.71
2018-01-19T13:53:58.225Z,60.86
2018-01-19T13:56:26.605Z,61.57
2018-01-19T13:58:55.142Z,60.95
2018-01-19T14:01:24.703Z,60.93
2018-01-19T14:03:53.053Z,60.84
2018-01-19T14:06:22.793Z,60.69
2018-01-19T14:08:51.086Z,58.92
2018-01-19T14:11:19.656Z,60.06
2018-01-19T14:13:48.308Z,59.72
2018-01-19T14:16:16.547Z,61.45
2018-01-19T14:18:44.984Z,59.56
2018-01-19T14:21:13.604Z,60.20
2018-01-19T14:23:43.203Z,61.04
2018-01-19T14:26:12.512Z,61.16
2018-01-19T14:28:41.560Z,60.89
2018-01-19T14:31:09.942Z,61.94
2018-01-19T14:33:39.507Z,61.92
2018-01-19T14:36:08.354Z,62.63
2018-01-19T14:38:38.040Z,62.58
2018-01-19T14:41:06.897Z,63.64
2018-01-19T14:43:36.007Z,64.50
2018-01-19T14:46:05.880Z,64.83
2018-01-19T14:48:34.390Z,64.15
2018-01-19T14:51:03.140Z,64.92
2018-01-19T14:53:31.972Z,64.66
2018-01-19T14:56:02.204Z,66.87
2018-01-19T14:58:31.159Z,69.50
2018-01-19T15:00:59.707Z,70.05
2018-01-19T15:03:28.575Z,69.85
2018-01-19T15:05:58.131Z,70.81
2018-01-19T15:08:26.636Z,71.42
2018-01-19T15:10:55.115Z,74.08
2018-01-19T15:13:23.444Z,75.47
2018-01-19T15:15:52.280Z,78.70
2018-01-19T15:18:21.330Z,79.98
2018-01-19T15:20:50.015Z,81.72
2018-01-19T15:23:18.904Z,82.41
2018-01-19T15:25:48.006Z,82.95
2018-01-19T15:28:16.947Z,83.25
2018-01-19T15:30:46.177Z,84.13
2018-01-19T15:33:14.955Z,85.69
2018-01-19T15:35:43.912Z,86.26
2018-01-19T15:38:13.095Z,86.78
2018-01-19T15:40:41.794Z,87.71
2018-01-19T15:43:11.164Z,87.17
2018-01-19T15:45:40.482Z,88.37
2018-01-19T15:48:09.231Z,88.38
2018-01-19T15:50:38.622Z,88.83
2018-01-19T15:53:07.712Z,89.25
2018-01-19T15:55:36.680Z,91.11
2018-01-19T15:58:06.808Z,90.22
2018-01-19T16:00:36.107Z,90.76
2018-01-19T16:03:04.827Z,91.24
2018-01-19T16:05:34.829Z,92.29
2018-01-19T16:08:03.548Z,92.33
2018-01-19T16:10:33.370Z,92.05
2018-01-19T16:13:01.747Z,88.50
2018-01-19T16:15:30.466Z,89.75
2018-01-19T16:18:00.888Z,90.51
2018-01-19T16:20:29.560Z,92.11
2018-01-19T16:22:58.193Z,92.42
2018-01-19T16:25:28.171Z,93.33
2018-01-19T16:27:57.256Z,93.63
2018-01-19T16:30:26.702Z,93.65
2018-01-19T16:32:56.301Z,93.63
2018-01-19T16:35:25.144Z,93.71
2018-01-19T16:37:53.636Z,93.82
2018-01-19T16:40:22.234Z,94.21
2018-01-19T16:42:51.074Z,94.49
2018-01-19T16:45:20.611Z,94.60
2018-01-19T16:47:49.358Z,94.58
2018-01-19T16:50:18.361Z,94.35
2018-01-19T16:52:47.470Z,94.77
2018-01-19T16:55:16.144Z,93.87
2018-01-19T16:57:45.485Z,94.21
2018-01-19T17:00:14.439Z,94.16
2018-01-19T17:02:43.470Z,94.23
2018-01-19T17:05:13.150Z,93.80
2018-01-19T17:07:42.925Z,93.26
2018-01-19T17:10:11.574Z,93.51
2018-01-19T17:12:41.367Z,93.77
2018-01-19T17:15:10.289Z,93.90
2018-01-19T17:17:39.345Z,92.94
2018-01-19T17:20:08.154Z,93.35
2018-01-19T17:22:37.285Z,93.91
2018-01-19T17:25:06.399Z,94.19
2018-01-19T17:27:35.051Z,94.86
2018-01-19T17:30:03.690Z,94.23
2018-01-19T17:32:32.790Z,94.72
2018-01-19T17:35:01.800Z,95.17
2018-01-19T17:37:30.933Z,94.84
2018-01-19T17:39:59.561Z,95.40
2018-01-19T17:42:28.114Z,94.81
2018-01-19T17:44:57.058Z,94.74
2018-01-19T17:47:25.646Z,95.22
2018-01-19T17:49:55.116Z,95.25
2018-01-19T17:52:24.528Z,95.34
2018-01-19T17:54:53.631Z,95.57
2018-01-19T17:57:23.021Z,95.67
2018-01-19T17:59:52.104Z,95.79
2018-01-19T18:02:21.431Z,95.03
2018-01-19T18:04:50.729Z,95.60
2018-01-19T18:07:20.222Z,95.43
2018-01-19T18:09:48.941Z,95.03
2018-01-19T18:12:17.757Z,95.05
2018-01-19T18:14:46.685Z,95.63
2018-01-19T18:17:16.184Z,95.14
2018-01-19T18:19:44.766Z,95.33
2018-01-19T18:22:14.065Z,94.57
2018-01-19T18:24:42.607Z,94.28
2018-01-19T18:27:11.436Z,94.72
2018-01-19T18:29:40.344Z,94.87
2018-01-19T18:32:08.768Z,95.13
2018-01-19T18:34:38.134Z,95.45
2018-01-19T18:37:07.101Z,95.77
2018-01-19T18:39:36.572Z,96.51
2018-01-19T18:42:06.890Z,95.71
2018-01-19T18:44:36.566Z,95.81
2018-01-19T18:47:05.265Z,95.15
2018-01-19T18:49:34.539Z,95.44
2018-01-19T18:52:03.904Z,95.98
2018-01-19T18:54:33.100Z,96.12
2018-01-19T18:57:02.234Z,95.80
2018-01-19T18:59:30.742Z,95.78
2018-01-19T19:01:59.092Z,95.91
2018-01-19T19:04:28.223Z,95.75
2018-01-19T19:06:56.584Z,95.49
2018-01-19T19:09:25.626Z,95.69
2018-01-19T19:11:53.897Z,95.09
2018-01-19T19:14:22.928Z,95.23
2018-01-19T19:16:51.187Z,94.78
2018-01-19T19:19:20.227Z,95.76
2018-01-19T19:21:48.527Z,96.33
2018-01-19T19:24:16.836Z,96.16
2018-01-19T19:26:45.135Z,96.12
2018-01-19T19:29:13.519Z,96.94
2018-01-19T19:31:41.835Z,96.57
2018-01-19T19:34:10.115Z,96.62
2018-01-19T19:36:38.438Z,97.25
2018-01-19T19:39:07.501Z,96.85
2018-01-19T19:41:35.751Z,96.77
2018-01-19T19:44:04.006Z,97.36
2018-01-19T19:46:33.054Z,97.49
2018-01-19T19:49:01.374Z,97.36
2018-01-19T19:51:29.678Z,97.92
2018-01-19T19:53:57.961Z,98.34
2018-01-19T19:56:26.215Z,98.35
2018-01-19T19:58:54.519Z,98.47
2018-01-19T20:01:22.786Z,98.31
2018-01-19T20:03:51.066Z,98.31
2018-01-19T20:06:19.320Z,98.43
2018-01-19T20:08:47.587Z,99.91
2018-01-19T20:11:15.868Z,98.32
2018-01-19T20:13:44.187Z,98.08
2018-01-19T20:16:12.597Z,98.41
2018-01-19T20:18:41.015Z,98.17
2018-01-19T20:21:10.005Z,97.95
2018-01-19T20:23:39.106Z,97.98
2018-01-19T20:26:08.141Z,98.29
2018-01-19T20:28:36.447Z,98.13
2018-01-19T20:31:04.758Z,98.05
2018-01-19T20:33:33.890Z,98.27
2018-01-19T20:36:02.163Z,98.51
2018-01-19T20:38:30.469Z,98.13
2018-01-19T20:40:58.752Z,98.01
2018-01-19T20:43:27.036Z,97.89
2018-01-19T20:45:55.317Z,98.03
2018-01-19T20:48:23.602Z,98.33
2018-01-19T20:50:51.898Z,98.41
2018-01-19T20:53:20.202Z,98.18
2018-01-19T20:55:48.518Z,98.56
2018-01-19T20:58:16.809Z,98.39
2018-01-19T21:00:45.070Z,98.50
2018-01-19T21:03:13.434Z,98.34
2018-01-19T21:05:41.791Z,98.41
2018-01-19T21:08:10.123Z,98.47
2018-01-19T21:10:38.432Z,98.34
2018-01-19T21:13:06.750Z,97.87
2018-01-19T21:15:35.062Z,97.67
2018-01-19T21:18:03.381Z,97.77
2018-01-19T21:20:31.693Z,97.45
2018-01-19T21:23:00.791Z,96.52
2018-01-19T21:25:29.042Z,95.57
2018-01-19T21:27:57.307Z,95.24
2018-01-19T21:30:27.350Z,96.12
2018-01-19T21:32:55.706Z,95.58
2018-01-19T21:35:24.003Z,95.31
2018-01-19T21:37:53.080Z,95.46
2018-01-19T21:40:22.921Z,94.87
2018-01-19T21:42:51.789Z,95.50
2018-01-19T21:45:20.086Z,95.26
2018-01-19T21:47:48.401Z,95.13
2018-01-19T21:50:16.710Z,95.38
2018-01-19T21:52:45.798Z,95.28
2018-01-19T21:55:14.148Z,95.17
2018-01-19T21:57:42.424Z,94.83
2018-01-19T22:00:10.738Z,95.06
2018-01-19T22:02:39.003Z,95.07
2018-01-19T22:05:07.350Z,94.49
2018-01-19T22:07:35.781Z,94.28
2018-01-19T22:10:04.081Z,94.05
2018-01-19T22:12:32.350Z,94.28
2018-01-19T22:15:00.692Z,93.71
2018-01-19T22:17:28.975Z,93.10
2018-01-19T22:19:58.888Z,93.96
2018-01-19T22:22:27.155Z,94.09
2018-01-19T22:24:55.454Z,94.26
2018-01-19T22:27:23.760Z,94.02
2018-01-19T22:29:52.007Z,93.82
2018-01-19T22:32:20.320Z,94.00
2018-01-19T22:34:48.632Z,94.13
2018-01-19T22:37:17.010Z,94.50
2018-01-19T22:39:45.343Z,94.42
2018-01-19T22:42:13.630Z,94.36
2018-01-19T22:44:41.952Z,94.36
2018-01-19T22:47:10.227Z,94.43
2018-01-19T22:49:39.673Z,94.15
2018-01-19T22:52:07.916Z,94.29
2018-01-19T22:54:36.223Z,94.19
2018-01-19T22:57:05.863Z,92.92
2018-01-19T22:59:34.130Z,93.91
2018-01-19T23:02:03.883Z,93.69
2018-01-19T23:04:32.226Z,91.46
2018-01-19T23:07:00.520Z,92.00
2018-01-19T23:09:28.838Z,92.05
2018-01-19T23:11:57.159Z,92.46
2018-01-19T23:14:25.449Z,92.48
2018-01-19T23:16:53.691Z,92.76
2018-01-19T23:19:22.780Z,92.35
2018-01-19T23:21:51.083Z,92.30
2018-01-19T23:24:19.510Z,92.63
2018-01-19T23:26:47.817Z,93.13
2018-01-19T23:29:16.109Z,93.87
2018-01-19T23:31:44.443Z,94.39
2018-01-19T23:34:12.898Z,94.34
2018-01-19T23:36:41.208Z,94.77
2018-01-19T23:39:09.562Z,95.37
2018-01-19T23:41:37.858Z,95.65
2018-01-19T23:44:06.120Z,95.42
2018-01-19T23:46:34.370Z,95.76
2018-01-19T23:49:02.655Z,95.91
2018-01-19T23:51:30.966Z,95.84
2018-01-19T23:53:59.260Z,95.84
2018-01-19T23:56:28.646Z,95.61
2018-01-19T23:58:56.899Z,95.78
